createdAt,value
2023-03-06T00:04:19.934Z,-0.98
2023-03-06T00:09:25.567Z,-0.90
2023-03-06T00:14:29.952Z,-0.87
2023-03-06T00:19:34.039Z,-0.83
2023-03-06T00:24:39.289Z,-0.82
2023-03-06T00:29:43.435Z,-0.89
2023-03-06T00:34:49.880Z,-0.90
2023-03-06T00:39:55.556Z,-0.87
2023-03-06T00:44:59.896Z,-0.86
2023-03-06T00:50:04.776Z,-0.91
2023-03-06T00:55:10.930Z,-0.93
2023-03-06T01:00:16.202Z,-0.98
2023-03-06T01:05:20.943Z,-0.90
2023-03-06T01:10:27.274Z,-0.89
2023-03-06T01:15:31.241Z,-0.88
2023-03-06T01:20:35.735Z,-0.94
2023-03-06T01:25:41.375Z,-0.91
2023-03-06T01:30:45.680Z,-0.90
2023-03-06T01:35:50.206Z,-0.97
2023-03-06T01:40:55.844Z,-1.03
2023-03-06T01:46:26.841Z,-1.08
2023-03-06T01:51:34.243Z,-1.14
2023-03-06T01:56:44.347Z,-1.07
2023-03-06T02:01:49.099Z,-1.02
2023-03-06T02:06:53.439Z,-1.04
2023-03-06T02:11:59.105Z,-1.16
2023-03-06T02:17:03.568Z,-1.25
2023-03-06T02:22:07.888Z,-1.38
2023-03-06T02:27:15.170Z,-1.46
2023-03-06T02:32:19.993Z,-1.50
2023-03-06T02:37:25.460Z,-1.49
2023-03-06T02:42:32.395Z,-1.52
2023-03-06T02:47:36.491Z,-1.50
2023-03-06T02:52:40.603Z,-1.47
2023-03-06T02:57:45.982Z,-1.46
2023-03-06T03:02:51.050Z,-1.43
2023-03-06T03:07:55.494Z,-1.43
2023-03-06T03:13:01.731Z,-1.47
2023-03-06T03:18:06.150Z,-1.45
2023-03-06T03:23:10.476Z,-1.42
2023-03-06T03:28:15.898Z,-1.38
2023-03-06T03:33:20.787Z,-1.41
2023-03-06T03:38:24.994Z,-1.34
2023-03-06T03:43:31.117Z,-1.34
2023-03-06T03:48:36.220Z,-1.30
2023-03-06T03:53:41.348Z,-1.21
2023-03-06T03:58:48.945Z,-1.18
2023-03-06T04:03:53.533Z,-1.20
2023-03-06T04:08:57.935Z,-1.15
2023-03-06T04:14:04.006Z,-1.11
2023-03-06T04:19:08.710Z,-1.06
2023-03-06T04:24:13.153Z,-1.06
2023-03-06T04:29:18.871Z,-1.04
2023-03-06T04:34:23.485Z,-1.01
2023-03-06T04:39:28.420Z,-1.02
2023-03-06T04:44:34.328Z,-1.02
2023-03-06T04:49:38.610Z,-0.99
2023-03-06T04:54:42.919Z,-0.97
2023-03-06T04:59:49.598Z,-0.95
2023-03-06T05:04:53.464Z,-0.92
2023-03-06T05:09:58.349Z,-0.91
2023-03-06T05:15:03.919Z,-0.92
2023-03-06T05:20:10.820Z,-0.88
2023-03-06T05:25:14.918Z,-0.84
2023-03-06T05:30:22.507Z,-0.86
2023-03-06T05:35:26.504Z,-0.89
2023-03-06T05:40:30.868Z,-0.80
2023-03-06T05:45:36.357Z,-0.83
2023-03-06T05:50:40.660Z,-0.79
2023-03-06T05:55:44.606Z,-0.77
2023-03-06T06:00:49.850Z,-0.77
2023-03-06T06:05:54.046Z,-0.73
2023-03-06T06:10:58.564Z,-0.65
2023-03-06T06:16:09.422Z,-0.59
2023-03-06T06:21:15.810Z,-0.52
2023-03-06T06:26:19.804Z,-0.35
2023-03-06T06:31:25.076Z,-0.28
2023-03-06T06:36:29.253Z,-0.25
2023-03-06T06:41:53.038Z,-0.16
2023-03-06T06:47:21.880Z,-0.06
2023-03-06T06:52:23.162Z,-0.02
2023-03-06T06:57:27.498Z,0.21
2023-03-06T07:02:33.240Z,0.19
2023-03-06T07:07:38.482Z,0.29
2023-03-06T07:12:43.099Z,0.37
2023-03-06T07:17:50.207Z,0.44
2023-03-06T07:22:54.620Z,0.56
2023-03-06T07:27:58.650Z,0.72
2023-03-06T07:33:04.245Z,0.80
2023-03-06T07:38:08.151Z,0.94
2023-03-06T07:43:19.101Z,1.02
2023-03-06T07:48:35.320Z,1.00
2023-03-06T07:53:39.242Z,1.08
2023-03-06T07:58:45.097Z,1.13
2023-03-06T08:03:51.066Z,1.26
2023-03-06T08:08:56.543Z,1.38
2023-03-06T08:14:01.317Z,1.56
2023-03-06T08:19:06.600Z,1.70
2023-03-06T08:24:10.932Z,1.82
2023-03-06T08:29:15.435Z,2.03
2023-03-06T08:34:22.339Z,2.13
2023-03-06T08:39:26.347Z,2.17
2023-03-06T08:44:30.347Z,2.39
2023-03-06T08:49:36.414Z,2.51
2023-03-06T08:54:40.768Z,2.72
2023-03-06T08:59:44.704Z,2.92
2023-03-06T09:04:50.164Z,2.79
2023-03-06T09:09:57.119Z,2.91
2023-03-06T09:15:04.907Z,3.21
2023-03-06T09:20:11.954Z,3.09
2023-03-06T09:25:20.298Z,3.44
2023-03-06T09:30:24.328Z,3.37
2023-03-06T09:35:29.986Z,3.40
2023-03-06T09:40:43.673Z,3.87
2023-03-06T09:45:47.756Z,3.83
2023-03-06T09:51:00.255Z,3.83
2023-03-06T09:56:07.907Z,4.00
2023-03-06T10:01:17.535Z,4.08
2023-03-06T10:06:26.411Z,4.17
2023-03-06T10:11:37.621Z,4.30
2023-03-06T10:16:42.046Z,4.55
2023-03-06T10:21:55.459Z,4.49
2023-03-06T10:27:05.082Z,4.48
2023-03-06T10:32:30.432Z,4.33
2023-03-06T10:37:37.610Z,4.57
2023-03-06T10:42:41.457Z,4.88
2023-03-06T10:47:46.140Z,5.14
2023-03-06T10:53:01.176Z,5.19
2023-03-06T10:58:19.823Z,5.16
2023-03-06T11:03:25.125Z,5.81
2023-03-06T11:08:31.149Z,5.67
2023-03-06T11:13:36.762Z,6.11
2023-03-06T11:18:43.807Z,5.99
2023-03-06T11:23:49.680Z,6.58
2023-03-06T11:29:03.035Z,6.31
2023-03-06T11:34:15.022Z,6.14
2023-03-06T11:39:27.541Z,6.41
2023-03-06T11:44:38.236Z,6.67
2023-03-06T11:49:45.460Z,6.59
2023-03-06T11:54:55.475Z,6.25
2023-03-06T12:00:16.682Z,6.49
2023-03-06T12:05:31.231Z,6.20
2023-03-06T12:10:40.152Z,6.01
2023-03-06T12:16:07.239Z,5.99
2023-03-06T12:21:16.720Z,6.06
2023-03-06T12:26:42.420Z,6.11
2023-03-06T12:32:01.744Z,5.93
2023-03-06T12:37:17.772Z,6.00
2023-03-06T12:42:42.370Z,6.24
2023-03-06T12:47:48.480Z,6.21
2023-03-06T12:52:53.323Z,6.10
2023-03-06T12:58:18.565Z,6.19
2023-03-06T13:03:27.504Z,6.25
2023-03-06T13:08:59.955Z,6.00
2023-03-06T13:14:27.190Z,6.09
2023-03-06T13:19:31.084Z,6.04
2023-03-06T13:24:37.285Z,5.86
2023-03-06T13:30:22.594Z,5.65
2023-03-06T13:35:50.233Z,5.76
2023-03-06T13:41:14.394Z,5.57
2023-03-06T13:46:26.285Z,5.43
2023-03-06T13:51:33.326Z,5.31
2023-03-06T13:57:15.547Z,5.31
2023-03-06T14:02:45.171Z,5.19
2023-03-06T14:07:50.468Z,5.08
2023-03-06T14:13:04.203Z,5.14
2023-03-06T14:18:16.712Z,5.11
2023-03-06T14:23:35.772Z,4.98
2023-03-06T14:28:40.410Z,4.74
2023-03-06T14:33:51.270Z,4.15
2023-03-06T14:38:58.354Z,3.96
2023-03-06T14:44:20.577Z,3.21
2023-03-06T14:49:27.620Z,2.71
2023-03-06T14:54:33.591Z,2.53
2023-03-06T14:59:42.925Z,2.43
2023-03-06T15:04:50.081Z,1.98
2023-03-06T15:09:55.437Z,1.83
2023-03-06T15:15:01.040Z,2.01
2023-03-06T15:20:09.360Z,2.15
2023-03-06T15:25:23.374Z,2.10
2023-03-06T15:30:30.312Z,2.26
2023-03-06T15:35:37.913Z,2.28
2023-03-06T15:40:54.732Z,2.27
2023-03-06T15:46:01.216Z,2.19
2023-03-06T15:51:07.175Z,2.05
2023-03-06T15:56:12.052Z,1.91
2023-03-06T16:01:18.667Z,1.92
2023-03-06T16:06:25.538Z,1.95
2023-03-06T16:11:43.285Z,2.03
2023-03-06T16:16:49.250Z,2.00
2023-03-06T16:21:55.141Z,1.98
2023-03-06T16:27:02.168Z,1.94
2023-03-06T16:32:07.375Z,1.85
2023-03-06T16:37:14.346Z,1.67
2023-03-06T16:42:19.493Z,1.72
2023-03-06T16:47:23.853Z,1.69
2023-03-06T16:52:30.242Z,1.70
2023-03-06T16:57:35.753Z,1.66
2023-03-06T17:02:39.892Z,1.61
2023-03-06T17:07:45.827Z,1.57
2023-03-06T17:12:50.129Z,1.49
2023-03-06T17:17:55.085Z,1.41
2023-03-06T17:23:01.442Z,1.35
2023-03-06T17:28:06.084Z,1.31
2023-03-06T17:33:11.330Z,1.23
2023-03-06T17:38:17.160Z,1.15
2023-03-06T17:43:21.893Z,1.14
2023-03-06T17:48:26.008Z,1.06
2023-03-06T17:53:31.446Z,0.96
2023-03-06T17:58:36.644Z,0.95
2023-03-06T18:03:44.259Z,0.84
2023-03-06T18:08:52.677Z,0.78
2023-03-06T18:13:58.384Z,0.72
2023-03-06T18:19:02.256Z,0.75
2023-03-06T18:24:09.864Z,0.78
2023-03-06T18:29:13.951Z,0.79
2023-03-06T18:34:19.435Z,0.80
2023-03-06T18:39:24.833Z,0.82
2023-03-06T18:44:29.249Z,0.90
2023-03-06T18:49:33.085Z,0.91
2023-03-06T18:54:38.305Z,0.92
2023-03-06T18:59:42.165Z,0.88
2023-03-06T19:04:46.378Z,0.89
2023-03-06T19:09:51.644Z,0.87
2023-03-06T19:14:56.081Z,0.80
2023-03-06T19:19:59.936Z,0.73
2023-03-06T19:25:05.757Z,0.65
2023-03-06T19:30:11.178Z,0.59
2023-03-06T19:35:15.663Z,0.55
2023-03-06T19:40:21.392Z,0.51
2023-03-06T19:45:25.409Z,0.45
2023-03-06T19:50:30.755Z,0.41
2023-03-06T19:55:36.926Z,0.38
2023-03-06T20:00:42.478Z,0.38
2023-03-06T20:05:47.788Z,0.39
2023-03-06T20:10:53.454Z,0.38
2023-03-06T20:15:58.315Z,0.40
2023-03-06T20:21:03.523Z,0.41
2023-03-06T20:26:12.308Z,0.35
2023-03-06T20:31:17.744Z,0.30
2023-03-06T20:36:27.478Z,0.26
2023-03-06T20:41:33.467Z,0.30
2023-03-06T20:46:37.501Z,0.34
2023-03-06T20:51:42.392Z,0.40
2023-03-06T20:56:50.195Z,0.49
2023-03-06T21:01:54.322Z,0.51
2023-03-06T21:06:58.280Z,0.59
2023-03-06T21:12:03.528Z,0.64
2023-03-06T21:17:07.382Z,0.66
2023-03-06T21:22:11.385Z,0.67
2023-03-06T21:27:16.596Z,0.62
2023-03-06T21:32:21.085Z,0.63
2023-03-06T21:37:25.586Z,0.62
2023-03-06T21:42:30.853Z,0.57
2023-03-06T21:47:38.772Z,0.55
2023-03-06T21:52:43.277Z,0.54
2023-03-06T21:57:52.241Z,0.53
2023-03-06T22:02:56.327Z,0.49
2023-03-06T22:08:00.710Z,0.53
2023-03-06T22:13:06.165Z,0.53
2023-03-06T22:18:15.759Z,0.51
2023-03-06T22:23:19.880Z,0.53
2023-03-06T22:28:25.346Z,0.53
2023-03-06T22:33:29.375Z,0.53
2023-03-06T22:38:33.731Z,0.51
2023-03-06T22:43:39.374Z,0.53
2023-03-06T22:48:44.010Z,0.50
2023-03-06T22:53:48.616Z,0.50
2023-03-06T22:58:54.205Z,0.47
2023-03-06T23:04:00.201Z,0.47
2023-03-06T23:09:06.013Z,0.41
2023-03-06T23:14:30.266Z,0.39
2023-03-06T23:19:53.176Z,0.37
2023-03-06T23:25:15.666Z,0.42
2023-03-06T23:30:21.657Z,0.38
2023-03-06T23:35:25.514Z,0.37
2023-03-06T23:40:29.897Z,0.36
2023-03-06T23:45:35.746Z,0.31
2023-03-06T23:50:41.262Z,0.25
2023-03-06T23:55:46.103Z,0.27
